Time;durP1;ratioP1;P1;durP2;ratioP2;P2;SDS_P1;SDS_P2;PMS_P1;PMS_P2;Temp;Humidity;BMP_temperature;BMP_pressure;BME280_temperature;BME280_humidity;BME280_pressure;Samples;Min_cycle;Max_cycle;Signal;HPM_P1;HPM_P2
2022/10/15 00:01:29;;;;;;;32.97;29.50;;;14.20;99.90;;;;;;4921740;29;20461;-80
2022/10/15 00:04:00;;;;;;;38.17;30.73;;;14.20;99.90;;;;;;4921855;29;20445;-80
2022/10/15 00:06:33;;;;;;;36.30;30.47;;;14.20;99.90;;;;;;4921128;29;20464;-80
2022/10/15 00:09:02;;;;;;;40.00;31.57;;;14.10;99.90;;;;;;4921443;29;20484;-80
2022/10/15 00:11:30;;;;;;;35.60;30.70;;;14.10;99.90;;;;;;4921583;29;20433;-80
2022/10/15 00:14:00;;;;;;;35.20;30.13;;;14.10;99.90;;;;;;4920149;29;20461;-80
2022/10/15 00:16:29;;;;;;;37.40;30.83;;;14.10;99.90;;;;;;4919094;29;20488;-79
2022/10/15 00:18:59;;;;;;;35.60;29.57;;;14.00;99.90;;;;;;4920114;29;20428;-80
2022/10/15 00:21:28;;;;;;;38.03;31.70;;;14.00;99.90;;;;;;4920929;29;20440;-80
2022/10/15 00:23:56;;;;;;;32.17;28.67;;;14.00;99.90;;;;;;4913462;29;20439;-81
2022/10/15 00:26:27;;;;;;;34.60;30.10;;;13.90;99.90;;;;;;4911822;29;20489;-80
2022/10/15 00:28:57;;;;;;;35.40;29.33;;;13.90;99.90;;;;;;4911362;29;20473;-80
2022/10/15 00:31:27;;;;;;;37.30;31.97;;;13.90;99.90;;;;;;4911044;29;20455;-80
2022/10/15 00:33:56;;;;;;;37.07;30.77;;;13.90;99.90;;;;;;4908826;29;20524;-80
2022/10/15 00:36:27;;;;;;;41.73;33.20;;;13.80;99.90;;;;;;4911219;29;20457;-81
2022/10/15 00:38:56;;;;;;;37.70;32.77;;;13.80;99.90;;;;;;4908921;29;20458;-80
2022/10/15 00:41:27;;;;;;;38.77;34.07;;;13.80;99.90;;;;;;4908849;29;20453;-80
2022/10/15 00:43:56;;;;;;;44.23;34.93;;;13.80;99.90;;;;;;4908334;29;20453;-81
2022/10/15 00:46:27;;;;;;;43.73;36.00;;;13.80;99.90;;;;;;4908904;29;20802;-81
2022/10/15 00:49:00;;;;;;;46.93;36.70;;;13.80;99.90;;;;;;4908809;29;20481;-80
2022/10/15 00:51:33;;;;;;;47.10;38.87;;;13.70;99.90;;;;;;4907683;29;20957;-80
2022/10/15 00:54:02;;;;;;;46.77;38.30;;;13.80;99.90;;;;;;4907971;29;20817;-80
2022/10/15 00:56:31;;;;;;;49.20;38.97;;;13.70;99.90;;;;;;4909130;29;20461;-80
2022/10/15 00:59:01;;;;;;;53.37;39.80;;;13.70;99.90;;;;;;4911916;29;20508;-80
2022/10/15 01:01:29;;;;;;;54.10;39.30;;;13.70;99.90;;;;;;4909413;29;20548;-79
2022/10/15 01:03:58;;;;;;;57.13;41.93;;;13.70;99.90;;;;;;4910162;29;20454;-80
2022/10/15 01:06:27;;;;;;;52.30;40.57;;;13.70;99.90;;;;;;4910180;29;20481;-79
2022/10/15 01:08:57;;;;;;;57.30;42.90;;;13.70;99.90;;;;;;4908799;29;20504;-80
2022/10/15 01:11:37;;;;;;;57.13;41.07;;;13.60;99.90;;;;;;4909458;29;20497;-80
2022/10/15 01:14:24;;;;;;;59.83;42.80;;;13.60;99.90;;;;;;4909958;29;20473;-80
2022/10/15 01:16:57;;;;;;;60.03;42.10;;;13.60;99.90;;;;;;4911314;29;21008;-80
2022/10/15 01:19:46;;;;;;;60.00;42.50;;;13.60;99.90;;;;;;4910322;29;20448;-80
2022/10/15 01:22:21;;;;;;;56.47;40.83;;;13.60;99.90;;;;;;4909442;29;20815;-80
2022/10/15 01:25:04;;;;;;;66.87;44.10;;;13.60;99.90;;;;;;4911033;29;20435;-80
2022/10/15 01:27:36;;;;;;;64.03;43.00;;;13.60;99.90;;;;;;4908955;29;20448;-80
2022/10/15 01:30:29;;;;;;;63.27;41.57;;;13.60;99.90;;;;;;4908917;29;20465;-80
2022/10/15 01:33:20;;;;;;;65.73;45.03;;;13.60;99.90;;;;;;4908435;29;20445;-80
2022/10/15 01:35:51;;;;;;;60.40;41.00;;;13.60;99.90;;;;;;4908137;29;20487;-80
2022/10/15 01:38:33;;;;;;;62.43;43.50;;;13.60;99.90;;;;;;4909177;29;20460;-79
2022/10/15 01:41:09;;;;;;;70.23;42.53;;;13.60;99.90;;;;;;4907630;29;20857;-80
2022/10/15 01:43:43;;;;;;;65.23;44.27;;;13.60;99.90;;;;;;4908381;29;20453;-80
2022/10/15 01:46:39;;;;;;;62.90;41.47;;;13.60;99.90;;;;;;4909677;29;20488;-80
2022/10/15 01:49:13;;;;;;;65.10;43.73;;;13.50;99.90;;;;;;4907388;29;20483;-80
2022/10/15 01:51:44;;;;;;;62.53;40.07;;;13.60;99.90;;;;;;4907287;29;20476;-80
2022/10/15 01:54:18;;;;;;;64.90;41.20;;;13.60;99.90;;;;;;4907631;29;20489;-80
2022/10/15 01:56:49;;;;;;;68.60;43.30;;;13.50;99.90;;;;;;4908483;29;20469;-80
2022/10/15 01:59:22;;;;;;;63.20;41.30;;;13.60;99.90;;;;;;4907030;29;20441;-79
2022/10/15 02:01:52;;;;;;;71.43;45.17;;;13.60;99.90;;;;;;4906892;29;20810;-80
2022/10/15 02:04:26;;;;;;;71.17;44.47;;;13.60;99.90;;;;;;4906760;29;21010;-80
2022/10/15 02:07:00;;;;;;;70.07;42.50;;;13.60;99.90;;;;;;4904625;29;20500;-80
2022/10/15 02:09:38;;;;;;;67.93;42.23;;;13.60;99.90;;;;;;4905236;29;20465;-80
2022/10/15 02:12:14;;;;;;;67.23;44.50;;;13.50;99.90;;;;;;4906792;29;20851;-80
2022/10/15 02:14:53;;;;;;;68.77;44.27;;;13.50;99.90;;;;;;4906943;29;20453;-80
2022/10/15 02:17:28;;;;;;;65.03;42.50;;;13.50;99.90;;;;;;4906797;29;20817;-80
2022/10/15 02:20:02;;;;;;;63.87;41.17;;;13.50;99.90;;;;;;4906268;29;20456;-80
2022/10/15 02:22:35;;;;;;;73.77;46.23;;;13.50;99.90;;;;;;4905787;29;20529;-80
2022/10/15 02:25:10;;;;;;;66.43;42.60;;;13.50;99.90;;;;;;4905648;29;20577;-80
2022/10/15 02:27:40;;;;;;;68.10;43.20;;;13.50;99.90;;;;;;4905271;29;20441;-80
2022/10/15 02:30:11;;;;;;;67.03;45.40;;;13.50;99.90;;;;;;4906488;29;20488;-80
2022/10/15 02:32:42;;;;;;;69.10;43.30;;;13.50;99.90;;;;;;4905687;29;20803;-80
2022/10/15 02:35:11;;;;;;;65.07;42.87;;;13.50;99.90;;;;;;4904821;29;20528;-80
2022/10/15 02:37:46;;;;;;;64.63;42.40;;;13.50;99.90;;;;;;4905136;29;20449;-80
2022/10/15 02:40:19;;;;;;;67.77;42.40;;;13.50;99.90;;;;;;4910907;29;20441;-80
2022/10/15 02:42:49;;;;;;;69.87;44.73;;;13.50;99.90;;;;;;4913484;29;20476;-80
2022/10/15 02:45:17;;;;;;;65.60;44.23;;;13.50;99.90;;;;;;4913400;29;20481;-81
2022/10/15 02:47:47;;;;;;;65.30;42.43;;;13.50;99.90;;;;;;4915178;29;20445;-80
2022/10/15 02:50:15;;;;;;;68.70;45.30;;;13.50;99.90;;;;;;4912438;29;20473;-79
2022/10/15 02:52:43;;;;;;;66.40;43.33;;;13.50;99.90;;;;;;4912187;29;20463;-80
2022/10/15 02:55:14;;;;;;;69.10;44.43;;;13.50;99.90;;;;;;4911574;29;20453;-79
2022/10/15 02:57:42;;;;;;;65.37;42.97;;;13.40;99.90;;;;;;4912018;29;20513;-80
2022/10/15 03:00:11;;;;;;;68.07;44.00;;;13.40;99.90;;;;;;4914733;29;20454;-80
2022/10/15 03:02:40;;;;;;;64.20;43.33;;;13.40;99.90;;;;;;4912868;29;20465;-80
2022/10/15 03:05:11;;;;;;;61.43;42.53;;;13.40;99.90;;;;;;4911941;29;20556;-80
2022/10/15 03:07:39;;;;;;;58.97;40.17;;;13.40;99.90;;;;;;4912747;29;20529;-80
2022/10/15 03:10:08;;;;;;;62.53;41.90;;;13.40;99.90;;;;;;4910445;29;20473;-81
2022/10/15 03:12:36;;;;;;;58.50;41.67;;;13.40;99.90;;;;;;4910965;29;20445;-80
2022/10/15 03:15:07;;;;;;;60.83;43.37;;;13.40;99.90;;;;;;4910577;29;20552;-80
2022/10/15 03:17:36;;;;;;;57.93;40.93;;;13.30;99.90;;;;;;4909498;29;20528;-80
2022/10/15 03:20:05;;;;;;;63.77;41.27;;;13.30;99.90;;;;;;4909026;29;20453;-80
2022/10/15 03:22:38;;;;;;;60.47;42.60;;;13.30;99.90;;;;;;4907029;29;20461;-80
2022/10/15 03:25:07;;;;;;;60.70;41.70;;;13.30;99.90;;;;;;4906848;29;20469;-80
2022/10/15 03:27:35;;;;;;;54.80;40.43;;;13.30;99.90;;;;;;4907518;29;20562;-80
2022/10/15 03:30:11;;;;;;;64.77;42.30;;;13.30;99.90;;;;;;4907586;29;20460;-80
2022/10/15 03:32:40;;;;;;;56.73;39.10;;;13.30;99.90;;;;;;4906648;29;20453;-80
2022/10/15 03:35:14;;;;;;;55.30;39.07;;;13.30;99.90;;;;;;4906553;29;20498;-80
2022/10/15 03:37:43;;;;;;;52.50;39.30;;;13.30;99.90;;;;;;4906663;29;20461;-80
2022/10/15 03:40:12;;;;;;;55.13;37.97;;;13.30;99.90;;;;;;4907060;29;20454;-80
2022/10/15 03:42:43;;;;;;;56.63;38.53;;;13.30;99.90;;;;;;4906484;29;20437;-80
2022/10/15 03:45:12;;;;;;;52.00;38.60;;;13.20;99.90;;;;;;4907260;29;20461;-80
2022/10/15 03:47:40;;;;;;;54.23;36.80;;;13.20;99.90;;;;;;4907659;29;20991;-79
2022/10/15 03:50:09;;;;;;;56.00;36.40;;;13.20;99.90;;;;;;4908213;29;20548;-80
2022/10/15 03:52:37;;;;;;;52.00;37.67;;;13.20;99.90;;;;;;4908110;29;20449;-80
2022/10/15 03:55:09;;;;;;;54.23;38.43;;;13.20;99.90;;;;;;4907625;29;20454;-80
2022/10/15 03:57:38;;;;;;;57.43;39.03;;;13.20;99.90;;;;;;4908041;29;20448;-80
2022/10/15 04:00:08;;;;;;;60.03;39.30;;;13.20;99.90;;;;;;4907707;29;20449;-79
2022/10/15 04:02:39;;;;;;;58.27;39.50;;;13.20;99.90;;;;;;4909124;29;20437;-80
2022/10/15 04:05:17;;;;;;;55.90;38.67;;;13.10;99.90;;;;;;4907932;29;20477;-80
2022/10/15 04:07:52;;;;;;;56.97;40.40;;;13.10;99.90;;;;;;4907933;29;20448;-80
2022/10/15 04:10:22;;;;;;;56.63;38.67;;;13.10;99.90;;;;;;4907322;29;20550;-80
2022/10/15 04:12:51;;;;;;;54.83;39.27;;;13.10;99.90;;;;;;4907746;29;20524;-80
2022/10/15 04:15:19;;;;;;;63.37;40.87;;;13.10;99.90;;;;;;4907431;29;21018;-80
2022/10/15 04:17:57;;;;;;;63.40;39.73;;;13.10;99.90;;;;;;4922912;29;20444;-80
2022/10/15 04:20:27;;;;;;;63.57;41.17;;;13.10;99.90;;;;;;4906712;29;20852;-80
2022/10/15 04:23:07;;;;;;;61.33;40.43;;;13.10;99.90;;;;;;4906165;29;20476;-79
2022/10/15 04:25:40;;;;;;;64.03;41.20;;;13.10;99.90;;;;;;4905665;29;20492;-79
2022/10/15 04:28:08;;;;;;;66.43;41.70;;;13.10;99.90;;;;;;4906909;29;20512;-80
2022/10/15 04:30:38;;;;;;;63.13;41.40;;;13.00;99.90;;;;;;4905384;29;20473;-79
2022/10/15 04:33:11;;;;;;;63.53;42.33;;;13.00;99.90;;;;;;4907220;29;20453;-79
2022/10/15 04:35:40;;;;;;;70.13;42.60;;;13.00;99.90;;;;;;4906957;29;20481;-79
2022/10/15 04:38:15;;;;;;;65.87;43.13;;;13.00;99.90;;;;;;4907818;29;20876;-79
2022/10/15 04:41:05;;;;;;;59.37;40.17;;;13.00;99.90;;;;;;4910354;29;20449;-79
2022/10/15 04:43:54;;;;;;;61.90;38.70;;;13.00;99.90;;;;;;4917090;29;20451;-79
2022/10/15 04:46:22;;;;;;;56.53;37.07;;;13.00;99.90;;;;;;4907023;29;20912;-79
2022/10/15 04:48:56;;;;;;;59.37;39.70;;;12.90;99.90;;;;;;4909717;29;20451;-79
2022/10/15 04:51:26;;;;;;;62.20;40.47;;;12.90;99.90;;;;;;4917038;29;20548;-79
2022/10/15 04:54:12;;;;;;;61.63;40.50;;;12.90;99.90;;;;;;4914867;29;20521;-79
2022/10/15 04:56:57;;;;;;;61.07;39.67;;;12.90;99.90;;;;;;4916180;29;20476;-79
2022/10/15 04:59:25;;;;;;;59.50;39.33;;;12.90;99.90;;;;;;4916631;29;20474;-79
2022/10/15 05:02:32;;;;;;;61.37;38.53;;;12.90;99.90;;;;;;4918187;29;20453;-79
2022/10/15 05:05:27;;;;;;;67.90;41.17;;;12.90;99.90;;;;;;4919194;29;20870;-79
2022/10/15 05:08:00;;;;;;;65.10;40.77;;;12.90;99.90;;;;;;4920892;29;20478;-79
2022/10/15 05:10:30;;;;;;;66.20;41.13;;;12.90;99.90;;;;;;4919841;29;20454;-79
2022/10/15 05:13:04;;;;;;;65.63;39.70;;;12.90;99.90;;;;;;4912691;29;20464;-78
2022/10/15 05:15:35;;;;;;;63.07;39.30;;;12.80;99.90;;;;;;4907516;29;21046;-78
2022/10/15 05:18:06;;;;;;;64.80;39.27;;;12.90;99.90;;;;;;4902701;29;20468;-79
2022/10/15 05:20:44;;;;;;;66.40;42.00;;;12.80;99.90;;;;;;4902237;29;20476;-79
2022/10/15 05:23:16;;;;;;;64.40;40.90;;;12.80;99.90;;;;;;4901085;29;20445;-79
2022/10/15 05:25:53;;;;;;;65.47;41.63;;;12.90;99.90;;;;;;4901652;29;20485;-79
2022/10/15 05:28:26;;;;;;;59.80;38.90;;;12.80;99.90;;;;;;4903780;29;20461;-79
2022/10/15 05:30:54;;;;;;;67.10;41.13;;;12.80;99.90;;;;;;4903479;29;20513;-79
2022/10/15 05:33:22;;;;;;;67.43;42.03;;;12.80;99.90;;;;;;4903738;29;20552;-79
2022/10/15 05:35:50;;;;;;;69.07;44.10;;;12.80;99.90;;;;;;4903861;29;20477;-79
2022/10/15 05:38:21;;;;;;;64.50;39.97;;;12.80;99.90;;;;;;4903741;29;20441;-79
2022/10/15 05:40:49;;;;;;;66.60;41.10;;;12.80;99.90;;;;;;4903587;29;20467;-79
2022/10/15 05:43:21;;;;;;;72.43;42.90;;;12.80;99.90;;;;;;4902198;29;20478;-79
2022/10/15 05:45:54;;;;;;;67.73;44.10;;;12.80;99.90;;;;;;4901554;29;20533;-79
2022/10/15 05:48:22;;;;;;;72.13;41.13;;;12.90;99.90;;;;;;4901111;29;20464;-79
2022/10/15 05:50:51;;;;;;;65.23;41.77;;;12.90;99.90;;;;;;4899792;29;20843;-79
2022/10/15 05:53:24;;;;;;;66.47;43.37;;;12.90;99.90;;;;;;4900196;29;20441;-79
2022/10/15 05:55:58;;;;;;;72.00;45.37;;;12.80;99.90;;;;;;4900032;29;20990;-79
2022/10/15 05:58:33;;;;;;;68.63;43.93;;;12.90;99.90;;;;;;4901418;29;20433;-79
2022/10/15 06:01:07;;;;;;;74.60;45.73;;;12.80;99.90;;;;;;4903064;29;20444;-79
2022/10/15 06:03:39;;;;;;;81.10;49.90;;;12.90;99.90;;;;;;4902785;29;20492;-79
2022/10/15 06:06:14;;;;;;;70.50;44.17;;;12.80;99.90;;;;;;4902375;29;20492;-79
2022/10/15 06:08:43;;;;;;;66.50;41.17;;;12.80;99.90;;;;;;4900417;29;20437;-79
2022/10/15 06:11:11;;;;;;;74.70;43.70;;;12.80;99.90;;;;;;4899194;29;20986;-79
2022/10/15 06:13:40;;;;;;;66.83;42.67;;;12.80;99.90;;;;;;4915307;29;20859;-79
2022/10/15 06:16:10;;;;;;;69.03;41.13;;;12.80;99.90;;;;;;4899335;29;20481;-79
2022/10/15 06:18:39;;;;;;;66.00;41.17;;;12.80;99.90;;;;;;4898597;29;20453;-78
2022/10/15 06:21:13;;;;;;;65.80;40.10;;;12.80;99.90;;;;;;4898301;29;20472;-78
2022/10/15 06:23:41;;;;;;;69.80;44.53;;;12.80;99.90;;;;;;4899874;29;20461;-78
2022/10/15 06:26:10;;;;;;;72.90;49.10;;;12.80;99.90;;;;;;4898072;29;20488;-77
2022/10/15 06:28:39;;;;;;;75.57;50.10;;;12.80;99.90;;;;;;4898384;29;20509;-77
2022/10/15 06:31:09;;;;;;;69.00;42.97;;;12.80;99.90;;;;;;4899708;29;20520;-77
2022/10/15 06:33:37;;;;;;;68.80;44.27;;;12.80;99.90;;;;;;4899730;29;20418;-78
2022/10/15 06:36:08;;;;;;;70.13;42.77;;;12.80;99.90;;;;;;4897993;29;20520;-77
2022/10/15 06:38:38;;;;;;;75.00;45.27;;;12.90;99.90;;;;;;4898057;29;20453;-78
2022/10/15 06:41:07;;;;;;;64.03;40.63;;;12.90;99.90;;;;;;4899500;29;20438;-78
2022/10/15 06:43:36;;;;;;;74.67;45.37;;;12.90;99.90;;;;;;4897920;29;20457;-77
2022/10/15 06:46:05;;;;;;;67.83;42.67;;;12.90;99.90;;;;;;4898035;29;20473;-77
2022/10/15 06:48:35;;;;;;;66.17;42.97;;;12.90;99.90;;;;;;4898257;29;20453;-77
2022/10/15 06:51:04;;;;;;;70.10;41.73;;;12.90;99.90;;;;;;4897956;29;20457;-78
2022/10/15 06:53:32;;;;;;;69.73;44.23;;;12.90;99.90;;;;;;4898228;29;20450;-78
2022/10/15 06:56:02;;;;;;;70.43;43.67;;;12.90;99.90;;;;;;4897806;29;20473;-78
2022/10/15 06:58:36;;;;;;;63.63;41.40;;;12.90;99.90;;;;;;4897985;29;20475;-78
2022/10/15 07:01:06;;;;;;;69.50;42.33;;;13.00;99.90;;;;;;4899174;29;20468;-77
2022/10/15 07:03:37;;;;;;;68.27;42.90;;;13.00;99.90;;;;;;4899004;29;20594;-77
2022/10/15 07:06:09;;;;;;;68.87;44.83;;;13.00;99.90;;;;;;4897922;29;20477;-77
2022/10/15 07:08:37;;;;;;;73.57;44.47;;;13.00;99.90;;;;;;4899439;29;20441;-77
2022/10/15 07:11:07;;;;;;;68.60;43.90;;;13.00;99.90;;;;;;4899928;29;20464;-76
2022/10/15 07:13:35;;;;;;;65.13;42.27;;;13.00;99.90;;;;;;4897668;29;20475;-76
2022/10/15 07:16:05;;;;;;;69.43;44.47;;;13.10;99.90;;;;;;4899290;29;20461;-77
2022/10/15 07:18:35;;;;;;;68.40;44.37;;;13.10;99.90;;;;;;4898304;29;20461;-77
2022/10/15 07:21:05;;;;;;;65.67;41.07;;;13.10;99.90;;;;;;4898139;29;20449;-78
2022/10/15 07:23:33;;;;;;;67.90;43.00;;;13.10;99.90;;;;;;4899440;29;20491;-77
2022/10/15 07:26:02;;;;;;;66.23;42.07;;;13.10;99.90;;;;;;4899053;29;20511;-78
2022/10/15 07:28:30;;;;;;;62.03;42.17;;;13.10;99.90;;;;;;4898375;29;20834;-78
2022/10/15 07:31:01;;;;;;;63.97;40.47;;;13.10;99.90;;;;;;4899887;29;20456;-78
2022/10/15 07:33:29;;;;;;;65.73;41.63;;;13.10;99.90;;;;;;4899017;29;20457;-77
2022/10/15 07:36:05;;;;;;;62.63;41.33;;;13.10;99.90;;;;;;4898023;29;20469;-77
2022/10/15 07:38:33;;;;;;;66.87;43.87;;;13.20;99.90;;;;;;4897732;29;20943;-77
2022/10/15 07:41:03;;;;;;;63.27;39.93;;;13.20;99.90;;;;;;4898852;29;20445;-76
2022/10/15 07:43:32;;;;;;;68.27;41.10;;;13.20;99.90;;;;;;4898427;29;20473;-77
2022/10/15 07:46:00;;;;;;;62.03;39.73;;;13.20;99.90;;;;;;4898037;29;21026;-77
2022/10/15 07:48:28;;;;;;;60.73;39.77;;;13.30;99.90;;;;;;4899435;29;20790;-77
2022/10/15 07:50:57;;;;;;;54.67;37.60;;;13.30;99.90;;;;;;4897457;29;20954;-77
2022/10/15 07:53:27;;;;;;;57.60;38.47;;;13.30;99.90;;;;;;4897408;29;20473;-78
2022/10/15 07:55:59;;;;;;;60.80;39.10;;;13.40;99.90;;;;;;4899119;29;20521;-77
2022/10/15 07:58:33;;;;;;;56.30;38.37;;;13.40;99.90;;;;;;4897191;29;20946;-77
2022/10/15 08:01:02;;;;;;;51.47;36.37;;;13.50;99.90;;;;;;4899153;29;20437;-77
2022/10/15 08:03:31;;;;;;;58.60;38.43;;;13.50;99.90;;;;;;4897188;29;20962;-77
2022/10/15 08:06:00;;;;;;;69.93;48.10;;;13.50;99.90;;;;;;4900893;29;20461;-76
2022/10/15 08:08:30;;;;;;;55.83;36.20;;;13.50;99.90;;;;;;4901033;29;20449;-77
2022/10/15 08:10:58;;;;;;;52.60;36.70;;;13.50;99.90;;;;;;4901419;29;20457;-77
2022/10/15 08:13:26;;;;;;;54.87;37.70;;;13.50;99.90;;;;;;4900859;29;20560;-77
2022/10/15 08:15:54;;;;;;;59.40;39.37;;;13.50;99.90;;;;;;4901177;29;20469;-77
2022/10/15 08:18:27;;;;;;;55.60;39.07;;;13.60;99.90;;;;;;4901105;29;20953;-77
2022/10/15 08:20:59;;;;;;;55.07;36.67;;;13.60;99.90;;;;;;4902031;29;20516;-77
2022/10/15 08:23:27;;;;;;;57.20;38.50;;;13.60;99.90;;;;;;4901535;29;20457;-78
2022/10/15 08:25:57;;;;;;;54.87;37.77;;;13.60;99.90;;;;;;4900914;29;20473;-77
2022/10/15 08:28:26;;;;;;;51.00;37.23;;;13.70;99.90;;;;;;4903073;29;20809;-76
2022/10/15 08:30:54;;;;;;;53.07;36.30;;;13.70;99.90;;;;;;4900822;29;20445;-76
2022/10/15 08:33:22;;;;;;;52.57;37.27;;;13.70;99.90;;;;;;4902326;29;20477;-77
2022/10/15 08:35:50;;;;;;;51.20;35.60;;;13.70;99.90;;;;;;4900380;29;20897;-76
2022/10/15 08:38:18;;;;;;;52.17;35.67;;;13.70;99.90;;;;;;4900901;29;20460;-76
2022/10/15 08:40:48;;;;;;;48.90;33.87;;;13.80;99.90;;;;;;4900722;29;20464;-76
2022/10/15 08:43:22;;;;;;;49.23;33.57;;;13.80;99.90;;;;;;4900548;29;20453;-75
2022/10/15 08:45:55;;;;;;;52.00;35.03;;;13.80;99.90;;;;;;4901025;29;20469;-77
2022/10/15 08:48:36;;;;;;;46.93;32.43;;;13.80;99.90;;;;;;4902078;29;20434;-76
2022/10/15 08:51:09;;;;;;;49.13;33.83;;;13.90;99.90;;;;;;4901837;29;20436;-77
2022/10/15 08:53:41;;;;;;;49.20;35.17;;;13.90;99.90;;;;;;4902232;29;20810;-76
2022/10/15 08:56:17;;;;;;;44.63;31.93;;;13.90;99.90;;;;;;4900766;29;20487;-77
2022/10/15 08:58:56;;;;;;;43.20;31.37;;;13.90;99.90;;;;;;4900309;29;20503;-77
2022/10/15 09:01:29;;;;;;;44.80;31.03;;;14.00;99.90;;;;;;4900519;29;20503;-77
2022/10/15 09:04:07;;;;;;;42.20;29.20;;;14.00;99.90;;;;;;4899983;29;20928;-77
2022/10/15 09:06:37;;;;;;;39.17;27.00;;;14.10;99.90;;;;;;4900489;29;20478;-77
2022/10/15 09:09:12;;;;;;;45.80;33.50;;;14.10;99.90;;;;;;4900420;29;20457;-77
2022/10/15 09:11:50;;;;;;;36.17;27.10;;;14.10;99.90;;;;;;4900490;29;20452;-76
2022/10/15 09:14:23;;;;;;;32.57;25.23;;;14.10;99.90;;;;;;4900639;29;20650;-77
2022/10/15 09:16:51;;;;;;;34.37;25.90;;;14.20;99.90;;;;;;4899825;29;21081;-77
2022/10/15 09:19:22;;;;;;;36.93;27.70;;;14.20;99.90;;;;;;4900779;29;20454;-77
2022/10/15 09:21:52;;;;;;;39.60;27.07;;;14.20;99.90;;;;;;4902009;29;20437;-76
2022/10/15 09:24:23;;;;;;;34.83;25.47;;;14.30;99.90;;;;;;4900723;29;20457;-77
2022/10/15 09:27:03;;;;;;;31.60;24.00;;;14.30;99.90;;;;;;4901974;29;20472;-77
2022/10/15 09:29:41;;;;;;;29.40;24.47;;;14.30;99.90;;;;;;4901329;29;20875;-77
2022/10/15 09:32:17;;;;;;;35.90;25.27;;;14.40;99.90;;;;;;4900136;29;20448;-77
2022/10/15 09:34:53;;;;;;;45.83;33.70;;;14.40;99.90;;;;;;4900169;29;20473;-77
2022/10/15 09:37:28;;;;;;;32.40;25.93;;;14.40;99.90;;;;;;4900022;29;20496;-77
2022/10/15 09:40:18;;;;;;;31.17;24.93;;;14.50;99.90;;;;;;4901273;29;20473;-77
2022/10/15 09:42:49;;;;;;;28.00;23.40;;;14.50;99.90;;;;;;4900743;29;20433;-77
2022/10/15 09:45:19;;;;;;;29.80;23.13;;;14.50;99.90;;;;;;4899915;29;20485;-77
2022/10/15 09:47:47;;;;;;;33.50;26.10;;;14.60;99.90;;;;;;4903894;29;20449;-77
2022/10/15 09:50:16;;;;;;;34.53;26.77;;;14.70;99.90;;;;;;4901548;29;20955;-76
2022/10/15 09:53:05;;;;;;;33.97;26.40;;;14.70;99.90;;;;;;4900652;29;20445;-76
2022/10/15 09:55:40;;;;;;;31.40;25.00;;;14.80;99.90;;;;;;4902796;29;20500;-77
2022/10/15 09:58:14;;;;;;;31.40;24.33;;;14.80;99.90;;;;;;4905712;29;20974;-77
2022/10/15 10:01:01;;;;;;;35.93;28.17;;;14.90;99.90;;;;;;4904082;29;20433;-77
2022/10/15 10:03:35;;;;;;;34.20;28.30;;;14.90;99.90;;;;;;4900297;29;20445;-77
2022/10/15 10:06:07;;;;;;;36.07;28.13;;;15.00;99.90;;;;;;4903972;29;20451;-76
2022/10/15 10:08:51;;;;;;;36.30;27.27;;;15.00;99.90;;;;;;4900053;29;20500;-76
2022/10/15 10:11:20;;;;;;;35.50;28.70;;;15.10;99.90;;;;;;4901215;29;20449;-77
2022/10/15 10:13:53;;;;;;;40.43;33.13;;;15.10;99.90;;;;;;4898874;29;20481;-76
2022/10/15 10:16:24;;;;;;;36.63;31.50;;;15.20;99.90;;;;;;4898624;29;20822;-77
2022/10/15 10:19:11;;;;;;;38.10;31.33;;;15.20;99.90;;;;;;4898495;29;20906;-76
2022/10/15 10:21:41;;;;;;;37.90;32.30;;;15.30;99.90;;;;;;4900240;29;20501;-76
2022/10/15 10:24:24;;;;;;;38.40;30.73;;;15.30;99.90;;;;;;4898386;29;20542;-76
2022/10/15 10:26:52;;;;;;;35.20;31.17;;;15.40;99.90;;;;;;4899559;29;21033;-76
2022/10/15 10:29:22;;;;;;;38.33;31.40;;;15.40;99.90;;;;;;4899386;29;20796;-76
2022/10/15 10:32:10;;;;;;;36.17;29.77;;;15.50;99.90;;;;;;4899808;29;20444;-76
2022/10/15 10:34:38;;;;;;;37.40;31.70;;;15.50;99.90;;;;;;4898067;29;20465;-77
2022/10/15 10:37:09;;;;;;;39.17;32.17;;;15.60;99.90;;;;;;4899419;29;20457;-76
2022/10/15 10:39:37;;;;;;;39.17;31.13;;;15.60;99.90;;;;;;4898126;29;20496;-76
2022/10/15 10:42:07;;;;;;;33.53;29.17;;;15.70;99.90;;;;;;4898020;29;20879;-76
2022/10/15 10:44:37;;;;;;;33.10;29.50;;;15.80;99.90;;;;;;4898100;29;20449;-76
2022/10/15 10:47:15;;;;;;;38.27;31.17;;;15.80;99.90;;;;;;4897844;29;21010;-76
2022/10/15 10:49:44;;;;;;;36.50;30.47;;;15.90;99.90;;;;;;4899169;29;20911;-76
2022/10/15 10:52:24;;;;;;;37.63;31.67;;;16.00;99.90;;;;;;4897761;29;20445;-76
2022/10/15 10:55:00;;;;;;;36.77;31.33;;;16.10;99.90;;;;;;4899275;29;20469;-76
2022/10/15 10:57:42;;;;;;;36.00;30.53;;;16.10;99.90;;;;;;4898983;29;20899;-76
2022/10/15 11:00:16;;;;;;;34.87;31.03;;;16.20;99.90;;;;;;4897727;29;20544;-76
2022/10/15 11:02:51;;;;;;;39.60;35.33;;;16.20;99.90;;;;;;4899268;29;20505;-76
2022/10/15 11:05:25;;;;;;;41.07;36.63;;;16.30;99.90;;;;;;4897852;29;20465;-76
2022/10/15 11:08:05;;;;;;;41.47;37.37;;;16.30;99.90;;;;;;4897972;29;20515;-76
2022/10/15 11:10:41;;;;;;;42.60;38.00;;;16.30;99.90;;;;;;4898642;29;20548;-77
2022/10/15 11:13:33;;;;;;;43.80;39.10;;;16.40;99.90;;;;;;4897963;29;20547;-76
2022/10/15 11:16:07;;;;;;;46.90;42.20;;;16.40;99.90;;;;;;4898832;29;20457;-76
2022/10/15 11:18:51;;;;;;;43.70;39.00;;;16.40;99.90;;;;;;4899099;29;20498;-76
2022/10/15 11:21:29;;;;;;;43.00;38.20;;;16.50;99.90;;;;;;4897548;29;20464;-77
2022/10/15 11:24:10;;;;;;;43.73;37.77;;;16.50;99.90;;;;;;4897446;29;20452;-77
2022/10/15 11:26:50;;;;;;;39.20;34.57;;;16.60;99.90;;;;;;4897283;29;20587;-77
2022/10/15 11:29:53;;;;;;;41.97;37.50;;;16.60;99.90;;;;;;4897345;29;20464;-77
2022/10/15 11:32:36;;;;;;;39.50;34.47;;;16.70;99.90;;;;;;4898542;29;20425;-77
2022/10/15 11:35:36;;;;;;;41.23;36.73;;;16.70;99.90;;;;;;4898338;29;20517;-77
2022/10/15 11:38:29;;;;;;;40.60;36.33;;;16.70;99.90;;;;;;4898310;29;20416;-77
2022/10/15 11:41:16;;;;;;;38.83;34.03;;;16.70;99.90;;;;;;4896897;29;20456;-77
2022/10/15 11:43:58;;;;;;;36.77;32.87;;;16.80;99.90;;;;;;4898372;29;20771;-77
2022/10/15 11:46:33;;;;;;;36.40;32.50;;;16.80;99.90;;;;;;4897152;29;20477;-76
2022/10/15 11:49:18;;;;;;;35.40;31.07;;;16.80;99.90;;;;;;4897149;29;20501;-77
2022/10/15 11:52:13;;;;;;;31.90;28.50;;;16.80;99.90;;;;;;4898280;29;20430;-76
2022/10/15 11:54:45;;;;;;;29.47;26.00;;;16.80;99.90;;;;;;4896967;29;20487;-77
2022/10/15 11:57:18;;;;;;;29.73;26.70;;;16.80;99.90;;;;;;4898433;29;20436;-77
2022/10/15 11:59:51;;;;;;;28.00;24.73;;;16.80;99.90;;;;;;4898491;29;20762;-77
2022/10/15 12:02:24;;;;;;;27.90;24.87;;;16.80;99.90;;;;;;4898464;29;20396;-77
2022/10/15 12:04:56;;;;;;;25.20;22.50;;;16.80;99.90;;;;;;4896968;29;20434;-77
2022/10/15 12:07:30;;;;;;;24.87;22.20;;;16.80;99.90;;;;;;4896979;29;20522;-77
2022/10/15 12:10:09;;;;;;;19.73;17.50;;;16.90;99.90;;;;;;4898378;29;20528;-77
2022/10/15 12:12:47;;;;;;;17.53;15.80;;;16.90;99.90;;;;;;4898781;29;20520;-77
2022/10/15 12:15:26;;;;;;;20.40;18.20;;;16.90;99.90;;;;;;4897984;29;20556;-77
2022/10/15 12:18:03;;;;;;;20.03;17.97;;;16.90;99.90;;;;;;4896854;29;20487;-77
2022/10/15 12:20:31;;;;;;;22.50;20.10;;;16.90;99.90;;;;;;4898249;29;20441;-77
2022/10/15 12:23:02;;;;;;;20.63;18.50;;;17.00;99.90;;;;;;4896807;29;20452;-77
2022/10/15 12:25:44;;;;;;;21.80;19.50;;;17.00;99.90;;;;;;4898013;29;20507;-77
2022/10/15 12:28:19;;;;;;;23.17;19.20;;;17.00;99.90;;;;;;4898225;29;20508;-77
2022/10/15 12:31:02;;;;;;;21.57;19.17;;;17.00;99.90;;;;;;4896748;29;20475;-77
2022/10/15 12:33:34;;;;;;;21.70;19.47;;;17.10;99.90;;;;;;4896754;29;20415;-77
2022/10/15 12:36:08;;;;;;;21.83;19.53;;;17.20;99.90;;;;;;4896585;29;20564;-77
2022/10/15 12:38:41;;;;;;;19.90;17.90;;;17.20;99.90;;;;;;4898749;29;20864;-77
2022/10/15 12:41:11;;;;;;;28.43;20.00;;;17.30;99.90;;;;;;4898272;29;20400;-77
2022/10/15 12:43:42;;;;;;;22.57;20.17;;;17.30;99.90;;;;;;4896570;29;20954;-77
2022/10/15 12:46:12;;;;;;;22.63;20.33;;;17.30;99.90;;;;;;4898353;29;20444;-77
2022/10/15 12:48:43;;;;;;;21.60;19.23;;;17.40;99.90;;;;;;4897906;29;20871;-77
2022/10/15 12:51:41;;;;;;;22.33;20.03;;;17.40;99.90;;;;;;4896583;29;20967;-77
2022/10/15 12:54:40;;;;;;;19.70;17.60;;;17.40;99.90;;;;;;4901725;29;20422;-77
2022/10/15 12:58:00;;;;;;;21.97;19.67;;;17.50;99.90;;;;;;4899931;29;20472;-76
2022/10/15 13:00:39;;;;;;;22.13;19.80;;;17.50;99.90;;;;;;4880478;29;20452;-77